sensor_id;sensor_type;location;lat;lon;timestamp;P1;durP1;ratioP1;P2;durP2;ratioP2
52244;SDS011;55759;51.586;-1.758;2023-04-25T00:01:40;16.77;;;5.10;;
52244;SDS011;55759;51.586;-1.758;2023-04-25T00:04:05;13.40;;;5.32;;
52244;SDS011;55759;51.586;-1.758;2023-04-25T00:06:32;14.70;;;5.85;;
52244;SDS011;55759;51.586;-1.758;2023-04-25T00:09:01;14.65;;;5.20;;
52244;SDS011;55759;51.586;-1.758;2023-04-25T00:11:28;18.00;;;5.88;;
52244;SDS011;55759;51.586;-1.758;2023-04-25T00:13:56;14.02;;;4.85;;
52244;SDS011;55759;51.586;-1.758;2023-04-25T00:18:48;15.23;;;5.40;;
52244;SDS011;55759;51.586;-1.758;2023-04-25T00:21:17;15.30;;;5.38;;
52244;SDS011;55759;51.586;-1.758;2023-04-25T00:23:44;17.50;;;5.82;;
52244;SDS011;55759;51.586;-1.758;2023-04-25T00:26:10;16.58;;;5.35;;
52244;SDS011;55759;51.586;-1.758;2023-04-25T00:28:36;13.02;;;5.45;;
52244;SDS011;55759;51.586;-1.758;2023-04-25T00:31:02;12.85;;;5.15;;
52244;SDS011;55759;51.586;-1.758;2023-04-25T00:33:28;14.73;;;5.20;;
52244;SDS011;55759;51.586;-1.758;2023-04-25T00:35:55;15.88;;;5.53;;
52244;SDS011;55759;51.586;-1.758;2023-04-25T00:41:30;21.10;;;5.32;;
52244;SDS011;55759;51.586;-1.758;2023-04-25T00:43:55;15.93;;;4.47;;
52244;SDS011;55759;51.586;-1.758;2023-04-25T00:46:22;14.07;;;4.72;;
52244;SDS011;55759;51.586;-1.758;2023-04-25T00:48:48;15.55;;;5.35;;
52244;SDS011;55759;51.586;-1.758;2023-04-25T00:51:15;14.38;;;5.10;;
52244;SDS011;55759;51.586;-1.758;2023-04-25T00:53:44;16.90;;;5.10;;
52244;SDS011;55759;51.586;-1.758;2023-04-25T00:58:36;11.82;;;4.65;;
52244;SDS011;55759;51.586;-1.758;2023-04-25T01:01:03;16.92;;;5.63;;
52244;SDS011;55759;51.586;-1.758;2023-04-25T01:03:30;14.50;;;5.05;;
52244;SDS011;55759;51.586;-1.758;2023-04-25T01:06:00;18.60;;;5.90;;
52244;SDS011;55759;51.586;-1.758;2023-04-25T01:08:27;16.42;;;5.60;;
52244;SDS011;55759;51.586;-1.758;2023-04-25T01:10:53;18.67;;;5.43;;
52244;SDS011;55759;51.586;-1.758;2023-04-25T01:13:19;13.50;;;5.25;;
52244;SDS011;55759;51.586;-1.758;2023-04-25T01:15:45;16.75;;;5.32;;
52244;SDS011;55759;51.586;-1.758;2023-04-25T01:18:10;13.95;;;5.35;;
52244;SDS011;55759;51.586;-1.758;2023-04-25T01:20:37;20.33;;;5.07;;
52244;SDS011;55759;51.586;-1.758;2023-04-25T01:23:04;16.20;;;5.25;;
52244;SDS011;55759;51.586;-1.758;2023-04-25T01:25:30;19.15;;;5.43;;
52244;SDS011;55759;51.586;-1.758;2023-04-25T01:27:57;17.30;;;5.25;;
52244;SDS011;55759;51.586;-1.758;2023-04-25T01:30:24;15.82;;;5.47;;
52244;SDS011;55759;51.586;-1.758;2023-04-25T01:32:52;17.02;;;4.97;;
52244;SDS011;55759;51.586;-1.758;2023-04-25T01:35:20;17.38;;;4.47;;
52244;SDS011;55759;51.586;-1.758;2023-04-25T01:37:48;12.05;;;4.70;;
52244;SDS011;55759;51.586;-1.758;2023-04-25T01:40:14;16.55;;;4.53;;
52244;SDS011;55759;51.586;-1.758;2023-04-25T01:42:41;12.23;;;4.65;;
52244;SDS011;55759;51.586;-1.758;2023-04-25T01:45:08;10.45;;;4.47;;
52244;SDS011;55759;51.586;-1.758;2023-04-25T01:47:35;14.00;;;4.40;;
52244;SDS011;55759;51.586;-1.758;2023-04-25T01:50:02;14.25;;;4.13;;
52244;SDS011;55759;51.586;-1.758;2023-04-25T01:52:29;13.35;;;4.15;;
52244;SDS011;55759;51.586;-1.758;2023-04-25T01:54:55;18.90;;;4.70;;
52244;SDS011;55759;51.586;-1.758;2023-04-25T01:57:22;15.23;;;4.15;;
52244;SDS011;55759;51.586;-1.758;2023-04-25T01:59:48;14.23;;;4.22;;
52244;SDS011;55759;51.586;-1.758;2023-04-25T02:04:40;9.73;;;4.05;;
52244;SDS011;55759;51.586;-1.758;2023-04-25T02:07:06;9.13;;;4.25;;
52244;SDS011;55759;51.586;-1.758;2023-04-25T02:09:32;14.45;;;4.38;;
52244;SDS011;55759;51.586;-1.758;2023-04-25T02:11:57;12.10;;;3.97;;
52244;SDS011;55759;51.586;-1.758;2023-04-25T02:14:23;14.40;;;4.70;;
52244;SDS011;55759;51.586;-1.758;2023-04-25T02:16:49;11.20;;;4.50;;
52244;SDS011;55759;51.586;-1.758;2023-04-25T02:19:16;16.45;;;4.63;;
52244;SDS011;55759;51.586;-1.758;2023-04-25T02:21:42;13.02;;;5.32;;
52244;SDS011;55759;51.586;-1.758;2023-04-25T02:24:07;15.70;;;5.55;;
52244;SDS011;55759;51.586;-1.758;2023-04-25T02:26:33;11.63;;;4.30;;
52244;SDS011;55759;51.586;-1.758;2023-04-25T02:28:59;14.32;;;4.63;;
52244;SDS011;55759;51.586;-1.758;2023-04-25T02:31:26;16.63;;;5.20;;
52244;SDS011;55759;51.586;-1.758;2023-04-25T02:33:51;12.18;;;5.38;;
52244;SDS011;55759;51.586;-1.758;2023-04-25T02:36:17;12.57;;;5.07;;
52244;SDS011;55759;51.586;-1.758;2023-04-25T02:38:43;12.18;;;4.38;;
52244;SDS011;55759;51.586;-1.758;2023-04-25T02:41:08;14.40;;;4.65;;
52244;SDS011;55759;51.586;-1.758;2023-04-25T02:43:34;14.98;;;5.45;;
52244;SDS011;55759;51.586;-1.758;2023-04-25T02:46:00;8.73;;;4.28;;
52244;SDS011;55759;51.586;-1.758;2023-04-25T02:48:25;10.98;;;4.80;;
52244;SDS011;55759;51.586;-1.758;2023-04-25T02:50:51;13.48;;;5.10;;
52244;SDS011;55759;51.586;-1.758;2023-04-25T02:53:17;13.93;;;4.88;;
52244;SDS011;55759;51.586;-1.758;2023-04-25T02:55:43;20.60;;;5.13;;
52244;SDS011;55759;51.586;-1.758;2023-04-25T02:58:08;16.05;;;5.00;;
52244;SDS011;55759;51.586;-1.758;2023-04-25T03:00:35;16.83;;;4.82;;
52244;SDS011;55759;51.586;-1.758;2023-04-25T03:03:00;14.98;;;5.38;;
52244;SDS011;55759;51.586;-1.758;2023-04-25T03:05:26;14.82;;;4.30;;
52244;SDS011;55759;51.586;-1.758;2023-04-25T03:07:52;13.25;;;4.90;;
52244;SDS011;55759;51.586;-1.758;2023-04-25T03:10:17;15.52;;;5.32;;
52244;SDS011;55759;51.586;-1.758;2023-04-25T03:12:43;17.20;;;4.97;;
52244;SDS011;55759;51.586;-1.758;2023-04-25T03:15:09;11.35;;;4.47;;
52244;SDS011;55759;51.586;-1.758;2023-04-25T03:17:35;17.85;;;5.82;;
52244;SDS011;55759;51.586;-1.758;2023-04-25T03:20:01;10.82;;;5.13;;
52244;SDS011;55759;51.586;-1.758;2023-04-25T03:22:26;12.25;;;4.18;;
52244;SDS011;55759;51.586;-1.758;2023-04-25T03:24:52;17.15;;;5.20;;
52244;SDS011;55759;51.586;-1.758;2023-04-25T03:27:18;16.48;;;5.75;;
52244;SDS011;55759;51.586;-1.758;2023-04-25T03:29:43;14.80;;;6.25;;
52244;SDS011;55759;51.586;-1.758;2023-04-25T03:32:09;12.80;;;5.45;;
52244;SDS011;55759;51.586;-1.758;2023-04-25T03:34:35;10.88;;;4.72;;
52244;SDS011;55759;51.586;-1.758;2023-04-25T03:37:00;11.65;;;5.38;;
52244;SDS011;55759;51.586;-1.758;2023-04-25T03:39:26;16.75;;;5.47;;
52244;SDS011;55759;51.586;-1.758;2023-04-25T03:41:52;18.35;;;5.80;;
52244;SDS011;55759;51.586;-1.758;2023-04-25T03:44:17;25.20;;;5.85;;
52244;SDS011;55759;51.586;-1.758;2023-04-25T03:46:43;20.25;;;5.68;;
52244;SDS011;55759;51.586;-1.758;2023-04-25T03:49:09;13.52;;;5.43;;
52244;SDS011;55759;51.586;-1.758;2023-04-25T03:51:35;18.17;;;5.88;;
52244;SDS011;55759;51.586;-1.758;2023-04-25T03:54:01;17.20;;;4.80;;
52244;SDS011;55759;51.586;-1.758;2023-04-25T03:56:26;18.08;;;5.53;;
52244;SDS011;55759;51.586;-1.758;2023-04-25T03:58:52;14.77;;;5.88;;
52244;SDS011;55759;51.586;-1.758;2023-04-25T04:01:18;19.08;;;7.10;;
52244;SDS011;55759;51.586;-1.758;2023-04-25T04:03:43;21.23;;;6.25;;
52244;SDS011;55759;51.586;-1.758;2023-04-25T04:06:09;21.73;;;6.13;;
52244;SDS011;55759;51.586;-1.758;2023-04-25T04:08:35;13.02;;;5.13;;
52244;SDS011;55759;51.586;-1.758;2023-04-25T04:11:01;16.17;;;5.47;;
52244;SDS011;55759;51.586;-1.758;2023-04-25T04:13:27;16.65;;;5.00;;
52244;SDS011;55759;51.586;-1.758;2023-04-25T04:15:54;17.77;;;4.80;;
52244;SDS011;55759;51.586;-1.758;2023-04-25T04:18:20;19.42;;;6.55;;
52244;SDS011;55759;51.586;-1.758;2023-04-25T04:20:46;14.85;;;5.25;;
52244;SDS011;55759;51.586;-1.758;2023-04-25T04:23:12;16.67;;;5.47;;
52244;SDS011;55759;51.586;-1.758;2023-04-25T04:25:38;17.17;;;6.18;;
52244;SDS011;55759;51.586;-1.758;2023-04-25T04:28:05;14.80;;;5.20;;
52244;SDS011;55759;51.586;-1.758;2023-04-25T04:30:32;14.75;;;5.38;;
52244;SDS011;55759;51.586;-1.758;2023-04-25T04:33:01;15.75;;;5.63;;
52244;SDS011;55759;51.586;-1.758;2023-04-25T04:35:28;14.70;;;5.72;;
52244;SDS011;55759;51.586;-1.758;2023-04-25T04:37:54;22.20;;;5.75;;
52244;SDS011;55759;51.586;-1.758;2023-04-25T04:42:46;12.90;;;5.40;;
52244;SDS011;55759;51.586;-1.758;2023-04-25T04:45:13;16.77;;;6.05;;
52244;SDS011;55759;51.586;-1.758;2023-04-25T04:47:38;15.88;;;6.57;;
52244;SDS011;55759;51.586;-1.758;2023-04-25T04:50:08;17.17;;;6.13;;
52244;SDS011;55759;51.586;-1.758;2023-04-25T04:52:35;20.00;;;6.10;;
52244;SDS011;55759;51.586;-1.758;2023-04-25T04:55:03;15.88;;;6.38;;
52244;SDS011;55759;51.586;-1.758;2023-04-25T04:57:31;24.75;;;6.30;;
52244;SDS011;55759;51.586;-1.758;2023-04-25T04:59:58;20.70;;;7.40;;
52244;SDS011;55759;51.586;-1.758;2023-04-25T05:02:24;15.00;;;5.95;;
52244;SDS011;55759;51.586;-1.758;2023-04-25T05:04:50;17.83;;;6.95;;
52244;SDS011;55759;51.586;-1.758;2023-04-25T05:07:16;18.45;;;7.00;;
52244;SDS011;55759;51.586;-1.758;2023-04-25T05:09:43;19.58;;;7.10;;
52244;SDS011;55759;51.586;-1.758;2023-04-25T05:12:08;22.25;;;7.78;;
52244;SDS011;55759;51.586;-1.758;2023-04-25T05:14:34;19.42;;;7.05;;
52244;SDS011;55759;51.586;-1.758;2023-04-25T05:17:00;17.10;;;6.90;;
52244;SDS011;55759;51.586;-1.758;2023-04-25T05:19:26;17.05;;;6.45;;
52244;SDS011;55759;51.586;-1.758;2023-04-25T05:21:51;23.60;;;6.65;;
52244;SDS011;55759;51.586;-1.758;2023-04-25T05:24:17;19.40;;;6.25;;
52244;SDS011;55759;51.586;-1.758;2023-04-25T05:26:43;16.88;;;7.38;;
52244;SDS011;55759;51.586;-1.758;2023-04-25T05:29:09;18.70;;;6.50;;
52244;SDS011;55759;51.586;-1.758;2023-04-25T05:31:35;18.00;;;7.18;;
52244;SDS011;55759;51.586;-1.758;2023-04-25T05:34:01;23.52;;;6.65;;
52244;SDS011;55759;51.586;-1.758;2023-04-25T05:36:27;22.02;;;7.05;;
52244;SDS011;55759;51.586;-1.758;2023-04-25T05:38:53;26.67;;;6.68;;
52244;SDS011;55759;51.586;-1.758;2023-04-25T05:41:19;19.02;;;7.07;;
52244;SDS011;55759;51.586;-1.758;2023-04-25T05:46:12;19.52;;;6.82;;
52244;SDS011;55759;51.586;-1.758;2023-04-25T05:51:04;18.73;;;6.95;;
52244;SDS011;55759;51.586;-1.758;2023-04-25T05:53:30;18.77;;;6.90;;
52244;SDS011;55759;51.586;-1.758;2023-04-25T05:55:55;17.63;;;6.90;;
52244;SDS011;55759;51.586;-1.758;2023-04-25T05:58:21;21.52;;;7.63;;
52244;SDS011;55759;51.586;-1.758;2023-04-25T06:00:47;19.23;;;6.55;;
52244;SDS011;55759;51.586;-1.758;2023-04-25T06:03:13;15.82;;;6.32;;
52244;SDS011;55759;51.586;-1.758;2023-04-25T06:05:41;21.30;;;7.13;;
52244;SDS011;55759;51.586;-1.758;2023-04-25T06:08:07;22.65;;;7.53;;
52244;SDS011;55759;51.586;-1.758;2023-04-25T06:10:33;22.58;;;7.78;;
52244;SDS011;55759;51.586;-1.758;2023-04-25T06:12:59;26.25;;;9.13;;
52244;SDS011;55759;51.586;-1.758;2023-04-25T06:15:25;26.20;;;11.00;;
52244;SDS011;55759;51.586;-1.758;2023-04-25T06:17:50;27.45;;;9.05;;
52244;SDS011;55759;51.586;-1.758;2023-04-25T06:20:16;25.38;;;10.85;;
52244;SDS011;55759;51.586;-1.758;2023-04-25T06:22:42;25.20;;;9.90;;
52244;SDS011;55759;51.586;-1.758;2023-04-25T06:25:08;20.67;;;7.57;;
52244;SDS011;55759;51.586;-1.758;2023-04-25T06:27:34;21.90;;;7.35;;
52244;SDS011;55759;51.586;-1.758;2023-04-25T06:29:59;16.45;;;6.15;;
52244;SDS011;55759;51.586;-1.758;2023-04-25T06:32:25;15.90;;;5.78;;
52244;SDS011;55759;51.586;-1.758;2023-04-25T06:34:52;15.65;;;4.63;;
52244;SDS011;55759;51.586;-1.758;2023-04-25T06:37:18;11.30;;;4.82;;
52244;SDS011;55759;51.586;-1.758;2023-04-25T06:39:44;13.60;;;4.53;;
52244;SDS011;55759;51.586;-1.758;2023-04-25T06:42:09;13.20;;;4.97;;
52244;SDS011;55759;51.586;-1.758;2023-04-25T06:44:35;15.00;;;4.82;;
52244;SDS011;55759;51.586;-1.758;2023-04-25T06:47:01;14.40;;;4.53;;
52244;SDS011;55759;51.586;-1.758;2023-04-25T06:49:27;15.82;;;3.85;;
52244;SDS011;55759;51.586;-1.758;2023-04-25T06:51:53;14.00;;;4.00;;
52244;SDS011;55759;51.586;-1.758;2023-04-25T06:54:18;11.98;;;3.90;;
52244;SDS011;55759;51.586;-1.758;2023-04-25T06:56:44;13.70;;;4.38;;
52244;SDS011;55759;51.586;-1.758;2023-04-25T06:59:10;11.98;;;3.97;;
52244;SDS011;55759;51.586;-1.758;2023-04-25T07:01:35;10.10;;;3.40;;
52244;SDS011;55759;51.586;-1.758;2023-04-25T07:04:01;13.95;;;3.90;;
52244;SDS011;55759;51.586;-1.758;2023-04-25T07:06:27;15.60;;;3.97;;
52244;SDS011;55759;51.586;-1.758;2023-04-25T07:08:53;11.15;;;3.95;;
52244;SDS011;55759;51.586;-1.758;2023-04-25T07:11:19;12.20;;;4.72;;
52244;SDS011;55759;51.586;-1.758;2023-04-25T07:13:44;14.18;;;3.70;;
52244;SDS011;55759;51.586;-1.758;2023-04-25T07:16:10;14.38;;;4.13;;
52244;SDS011;55759;51.586;-1.758;2023-04-25T07:18:36;11.07;;;3.20;;
52244;SDS011;55759;51.586;-1.758;2023-04-25T07:21:02;12.30;;;3.65;;
52244;SDS011;55759;51.586;-1.758;2023-04-25T07:23:27;10.10;;;4.38;;
52244;SDS011;55759;51.586;-1.758;2023-04-25T07:25:53;11.25;;;3.15;;
52244;SDS011;55759;51.586;-1.758;2023-04-25T07:28:19;13.32;;;3.53;;
52244;SDS011;55759;51.586;-1.758;2023-04-25T07:30:45;12.25;;;3.10;;
52244;SDS011;55759;51.586;-1.758;2023-04-25T07:33:10;9.85;;;2.88;;
52244;SDS011;55759;51.586;-1.758;2023-04-25T07:35:36;9.32;;;3.33;;
52244;SDS011;55759;51.586;-1.758;2023-04-25T07:38:02;11.48;;;3.30;;
52244;SDS011;55759;51.586;-1.758;2023-04-25T07:40:28;11.52;;;3.95;;
52244;SDS011;55759;51.586;-1.758;2023-04-25T07:42:55;9.98;;;3.05;;
52244;SDS011;55759;51.586;-1.758;2023-04-25T07:45:20;10.68;;;3.15;;
52244;SDS011;55759;51.586;-1.758;2023-04-25T07:47:46;6.63;;;2.88;;
52244;SDS011;55759;51.586;-1.758;2023-04-25T07:50:12;6.45;;;2.85;;
52244;SDS011;55759;51.586;-1.758;2023-04-25T07:52:37;7.10;;;2.70;;
52244;SDS011;55759;51.586;-1.758;2023-04-25T07:55:03;8.57;;;2.85;;
52244;SDS011;55759;51.586;-1.758;2023-04-25T07:57:29;10.27;;;3.17;;
52244;SDS011;55759;51.586;-1.758;2023-04-25T07:59:55;12.55;;;3.10;;
52244;SDS011;55759;51.586;-1.758;2023-04-25T08:02:21;12.02;;;3.53;;
52244;SDS011;55759;51.586;-1.758;2023-04-25T08:04:47;9.05;;;2.97;;
52244;SDS011;55759;51.586;-1.758;2023-04-25T08:07:14;11.20;;;2.85;;
52244;SDS011;55759;51.586;-1.758;2023-04-25T08:09:40;9.38;;;3.00;;
52244;SDS011;55759;51.586;-1.758;2023-04-25T08:12:06;7.25;;;2.20;;
52244;SDS011;55759;51.586;-1.758;2023-04-25T08:14:33;9.80;;;2.35;;
52244;SDS011;55759;51.586;-1.758;2023-04-25T08:17:01;8.50;;;2.33;;
52244;SDS011;55759;51.586;-1.758;2023-04-25T08:19:28;5.60;;;2.60;;
52244;SDS011;55759;51.586;-1.758;2023-04-25T08:21:55;8.15;;;2.70;;
52244;SDS011;55759;51.586;-1.758;2023-04-25T08:24:21;6.25;;;2.15;;
52244;SDS011;55759;51.586;-1.758;2023-04-25T08:26:47;9.52;;;2.70;;
52244;SDS011;55759;51.586;-1.758;2023-04-25T08:29:13;6.30;;;2.40;;
52244;SDS011;55759;51.586;-1.758;2023-04-25T08:31:39;6.05;;;2.40;;
52244;SDS011;55759;51.586;-1.758;2023-04-25T08:34:05;8.52;;;2.33;;
52244;SDS011;55759;51.586;-1.758;2023-04-25T08:36:31;6.88;;;2.17;;
52244;SDS011;55759;51.586;-1.758;2023-04-25T08:38:57;10.52;;;2.15;;
52244;SDS011;55759;51.586;-1.758;2023-04-25T08:41:23;4.05;;;2.17;;
52244;SDS011;55759;51.586;-1.758;2023-04-25T08:43:50;3.85;;;1.80;;
52244;SDS011;55759;51.586;-1.758;2023-04-25T08:48:43;4.90;;;2.50;;
52244;SDS011;55759;51.586;-1.758;2023-04-25T08:51:10;5.45;;;1.90;;
52244;SDS011;55759;51.586;-1.758;2023-04-25T08:53:44;6.60;;;2.10;;
52244;SDS011;55759;51.586;-1.758;2023-04-25T08:56:12;6.78;;;2.17;;
52244;SDS011;55759;51.586;-1.758;2023-04-25T08:58:50;5.20;;;2.20;;
52244;SDS011;55759;51.586;-1.758;2023-04-25T09:01:16;6.93;;;1.80;;
52244;SDS011;55759;51.586;-1.758;2023-04-25T09:03:43;4.55;;;1.90;;
52244;SDS011;55759;51.586;-1.758;2023-04-25T09:06:12;6.82;;;2.28;;
52244;SDS011;55759;51.586;-1.758;2023-04-25T09:08:40;6.10;;;2.20;;
52244;SDS011;55759;51.586;-1.758;2023-04-25T09:11:06;4.55;;;1.85;;
52244;SDS011;55759;51.586;-1.758;2023-04-25T09:13:32;6.65;;;2.08;;
52244;SDS011;55759;51.586;-1.758;2023-04-25T09:15:58;9.63;;;2.10;;
52244;SDS011;55759;51.586;-1.758;2023-04-25T09:18:34;4.40;;;1.90;;
52244;SDS011;55759;51.586;-1.758;2023-04-25T09:21:10;4.35;;;1.95;;
52244;SDS011;55759;51.586;-1.758;2023-04-25T09:23:46;4.50;;;2.03;;
52244;SDS011;55759;51.586;-1.758;2023-04-25T09:26:18;4.82;;;1.80;;
52244;SDS011;55759;51.586;-1.758;2023-04-25T09:28:45;7.00;;;2.72;;
52244;SDS011;55759;51.586;-1.758;2023-04-25T09:31:20;8.75;;;1.92;;
52244;SDS011;55759;51.586;-1.758;2023-04-25T09:33:49;4.68;;;1.95;;
52244;SDS011;55759;51.586;-1.758;2023-04-25T09:36:15;5.45;;;1.98;;
52244;SDS011;55759;51.586;-1.758;2023-04-25T09:38:41;6.35;;;1.80;;
52244;SDS011;55759;51.586;-1.758;2023-04-25T09:41:10;4.15;;;1.75;;
52244;SDS011;55759;51.586;-1.758;2023-04-25T09:43:37;6.32;;;2.08;;
52244;SDS011;55759;51.586;-1.758;2023-04-25T09:46:10;3.67;;;2.17;;
52244;SDS011;55759;51.586;-1.758;2023-04-25T09:48:36;5.45;;;2.00;;
52244;SDS011;55759;51.586;-1.758;2023-04-25T09:51:09;5.13;;;2.00;;
52244;SDS011;55759;51.586;-1.758;2023-04-25T09:53:37;4.97;;;2.00;;
52244;SDS011;55759;51.586;-1.758;2023-04-25T09:56:05;5.35;;;2.10;;
52244;SDS011;55759;51.586;-1.758;2023-04-25T09:58:33;4.65;;;1.90;;
52244;SDS011;55759;51.586;-1.758;2023-04-25T10:01:03;7.20;;;2.08;;
52244;SDS011;55759;51.586;-1.758;2023-04-25T10:03:32;4.93;;;2.05;;
52244;SDS011;55759;51.586;-1.758;2023-04-25T10:06:00;3.70;;;1.75;;
52244;SDS011;55759;51.586;-1.758;2023-04-25T10:08:34;5.47;;;1.92;;
52244;SDS011;55759;51.586;-1.758;2023-04-25T10:11:05;5.47;;;2.05;;
52244;SDS011;55759;51.586;-1.758;2023-04-25T10:13:33;3.17;;;1.80;;
52244;SDS011;55759;51.586;-1.758;2023-04-25T10:16:01;4.85;;;1.70;;
52244;SDS011;55759;51.586;-1.758;2023-04-25T10:18:29;6.60;;;1.73;;
52244;SDS011;55759;51.586;-1.758;2023-04-25T10:21:00;2.92;;;1.52;;
52244;SDS011;55759;51.586;-1.758;2023-04-25T10:23:28;4.40;;;1.50;;
52244;SDS011;55759;51.586;-1.758;2023-04-25T10:25:56;4.28;;;1.98;;
52244;SDS011;55759;51.586;-1.758;2023-04-25T10:28:22;7.47;;;1.73;;
52244;SDS011;55759;51.586;-1.758;2023-04-25T10:31:10;2.90;;;1.50;;
52244;SDS011;55759;51.586;-1.758;2023-04-25T10:33:39;3.05;;;1.60;;
52244;SDS011;55759;51.586;-1.758;2023-04-25T10:36:21;2.83;;;1.73;;
52244;SDS011;55759;51.586;-1.758;2023-04-25T10:38:52;4.00;;;1.58;;
52244;SDS011;55759;51.586;-1.758;2023-04-25T10:41:19;5.20;;;1.77;;
52244;SDS011;55759;51.586;-1.758;2023-04-25T10:43:46;5.10;;;2.05;;
52244;SDS011;55759;51.586;-1.758;2023-04-25T10:46:20;3.13;;;1.65;;
52244;SDS011;55759;51.586;-1.758;2023-04-25T10:48:59;3.65;;;1.45;;
52244;SDS011;55759;51.586;-1.758;2023-04-25T10:51:33;4.72;;;1.75;;
52244;SDS011;55759;51.586;-1.758;2023-04-25T10:54:04;3.47;;;1.80;;
52244;SDS011;55759;51.586;-1.758;2023-04-25T10:56:32;4.85;;;1.90;;
52244;SDS011;55759;51.586;-1.758;2023-04-25T10:59:13;4.78;;;1.70;;
52244;SDS011;55759;51.586;-1.758;2023-04-25T11:01:44;3.85;;;1.60;;
52244;SDS011;55759;51.586;-1.758;2023-04-25T11:04:23;5.03;;;1.48;;
52244;SDS011;55759;51.586;-1.758;2023-04-25T11:09:40;3.88;;;1.48;;
52244;SDS011;55759;51.586;-1.758;2023-04-25T11:12:09;5.90;;;1.70;;
52244;SDS011;55759;51.586;-1.758;2023-04-25T11:14:36;5.40;;;1.83;;
52244;SDS011;55759;51.586;-1.758;2023-04-25T11:17:02;5.82;;;2.03;;
52244;SDS011;55759;51.586;-1.758;2023-04-25T11:19:28;3.00;;;1.52;;
52244;SDS011;55759;51.586;-1.758;2023-04-25T11:21:55;6.32;;;1.70;;
52244;SDS011;55759;51.586;-1.758;2023-04-25T11:24:28;4.22;;;1.60;;
52244;SDS011;55759;51.586;-1.758;2023-04-25T11:26:55;2.85;;;1.45;;
52244;SDS011;55759;51.586;-1.758;2023-04-25T11:29:23;4.53;;;1.73;;
52244;SDS011;55759;51.586;-1.758;2023-04-25T11:31:52;4.32;;;1.67;;
52244;SDS011;55759;51.586;-1.758;2023-04-25T11:34:20;4.72;;;1.73;;
52244;SDS011;55759;51.586;-1.758;2023-04-25T11:39:12;2.83;;;1.40;;
52244;SDS011;55759;51.586;-1.758;2023-04-25T11:41:38;3.25;;;1.60;;
52244;SDS011;55759;51.586;-1.758;2023-04-25T11:46:30;5.97;;;1.60;;
52244;SDS011;55759;51.586;-1.758;2023-04-25T11:48:59;4.43;;;1.70;;
52244;SDS011;55759;51.586;-1.758;2023-04-25T11:51:25;3.25;;;1.55;;
52244;SDS011;55759;51.586;-1.758;2023-04-25T11:53:51;3.20;;;1.50;;
52244;SDS011;55759;51.586;-1.758;2023-04-25T11:56:17;3.13;;;1.38;;
52244;SDS011;55759;51.586;-1.758;2023-04-25T12:02:09;4.82;;;1.75;;
52244;SDS011;55759;51.586;-1.758;2023-04-25T12:06:51;6.18;;;1.92;;
52244;SDS011;55759;51.586;-1.758;2023-04-25T12:09:19;4.40;;;1.55;;
52244;SDS011;55759;51.586;-1.758;2023-04-25T12:11:52;3.50;;;1.75;;
52244;SDS011;55759;51.586;-1.758;2023-04-25T12:14:29;4.18;;;2.08;;
52244;SDS011;55759;51.586;-1.758;2023-04-25T12:17:13;5.35;;;2.20;;
52244;SDS011;55759;51.586;-1.758;2023-04-25T12:22:28;4.43;;;1.75;;
52244;SDS011;55759;51.586;-1.758;2023-04-25T12:24:55;3.72;;;1.50;;
52244;SDS011;55759;51.586;-1.758;2023-04-25T12:27:23;4.15;;;1.52;;
52244;SDS011;55759;51.586;-1.758;2023-04-25T12:29:55;4.95;;;1.60;;
52244;SDS011;55759;51.586;-1.758;2023-04-25T12:32:22;4.20;;;1.50;;
52244;SDS011;55759;51.586;-1.758;2023-04-25T12:34:47;3.70;;;1.83;;
52244;SDS011;55759;51.586;-1.758;2023-04-25T12:37:13;4.40;;;1.52;;
52244;SDS011;55759;51.586;-1.758;2023-04-25T12:39:39;2.70;;;1.60;;
52244;SDS011;55759;51.586;-1.758;2023-04-25T12:44:33;2.55;;;1.50;;
52244;SDS011;55759;51.586;-1.758;2023-04-25T12:46:59;6.63;;;1.73;;
52244;SDS011;55759;51.586;-1.758;2023-04-25T12:51:50;4.75;;;1.67;;
52244;SDS011;55759;51.586;-1.758;2023-04-25T12:54:16;5.15;;;2.00;;
52244;SDS011;55759;51.586;-1.758;2023-04-25T12:56:42;3.35;;;1.85;;
52244;SDS011;55759;51.586;-1.758;2023-04-25T12:59:08;4.05;;;1.83;;
52244;SDS011;55759;51.586;-1.758;2023-04-25T13:01:34;3.15;;;2.00;;
52244;SDS011;55759;51.586;-1.758;2023-04-25T13:04:00;6.30;;;3.15;;
52244;SDS011;55759;51.586;-1.758;2023-04-25T13:06:25;3.63;;;1.80;;
52244;SDS011;55759;51.586;-1.758;2023-04-25T13:08:52;4.93;;;1.90;;
52244;SDS011;55759;51.586;-1.758;2023-04-25T13:11:19;3.70;;;1.83;;
52244;SDS011;55759;51.586;-1.758;2023-04-25T13:13:45;6.07;;;2.00;;
52244;SDS011;55759;51.586;-1.758;2023-04-25T13:16:11;4.13;;;2.00;;
52244;SDS011;55759;51.586;-1.758;2023-04-25T13:18:39;5.40;;;1.80;;
52244;SDS011;55759;51.586;-1.758;2023-04-25T13:21:05;5.63;;;1.90;;
52244;SDS011;55759;51.586;-1.758;2023-04-25T13:23:30;6.00;;;1.90;;
52244;SDS011;55759;51.586;-1.758;2023-04-25T13:25:56;5.53;;;1.92;;
52244;SDS011;55759;51.586;-1.758;2023-04-25T13:30:49;6.90;;;2.05;;
52244;SDS011;55759;51.586;-1.758;2023-04-25T13:33:15;4.65;;;2.00;;
52244;SDS011;55759;51.586;-1.758;2023-04-25T13:35:40;5.00;;;1.77;;
52244;SDS011;55759;51.586;-1.758;2023-04-25T13:38:07;4.20;;;2.30;;
52244;SDS011;55759;51.586;-1.758;2023-04-25T13:40:33;3.00;;;1.70;;
52244;SDS011;55759;51.586;-1.758;2023-04-25T13:42:59;3.83;;;2.08;;
52244;SDS011;55759;51.586;-1.758;2023-04-25T13:45:26;3.35;;;1.83;;
52244;SDS011;55759;51.586;-1.758;2023-04-25T13:47:52;3.10;;;1.80;;
52244;SDS011;55759;51.586;-1.758;2023-04-25T13:50:17;4.97;;;2.00;;
52244;SDS011;55759;51.586;-1.758;2023-04-25T13:52:43;4.18;;;2.13;;
52244;SDS011;55759;51.586;-1.758;2023-04-25T13:55:10;3.95;;;1.90;;
52244;SDS011;55759;51.586;-1.758;2023-04-25T13:57:35;4.05;;;1.85;;
52244;SDS011;55759;51.586;-1.758;2023-04-25T14:02:37;5.47;;;1.95;;
52244;SDS011;55759;51.586;-1.758;2023-04-25T14:05:03;6.57;;;2.08;;
52244;SDS011;55759;51.586;-1.758;2023-04-25T14:07:30;4.60;;;1.77;;
52244;SDS011;55759;51.586;-1.758;2023-04-25T14:09:56;5.28;;;1.90;;
52244;SDS011;55759;51.586;-1.758;2023-04-25T14:12:22;3.97;;;2.00;;
52244;SDS011;55759;51.586;-1.758;2023-04-25T14:14:48;3.50;;;1.70;;
52244;SDS011;55759;51.586;-1.758;2023-04-25T14:17:14;8.43;;;2.08;;
52244;SDS011;55759;51.586;-1.758;2023-04-25T14:22:10;4.93;;;1.90;;
52244;SDS011;55759;51.586;-1.758;2023-04-25T14:24:36;6.13;;;2.05;;
52244;SDS011;55759;51.586;-1.758;2023-04-25T14:27:02;4.20;;;1.80;;
52244;SDS011;55759;51.586;-1.758;2023-04-25T14:29:29;4.72;;;1.90;;
52244;SDS011;55759;51.586;-1.758;2023-04-25T14:31:54;2.50;;;1.67;;
52244;SDS011;55759;51.586;-1.758;2023-04-25T14:34:22;6.20;;;2.03;;
52244;SDS011;55759;51.586;-1.758;2023-04-25T14:39:15;3.08;;;1.55;;
52244;SDS011;55759;51.586;-1.758;2023-04-25T14:47:49;3.33;;;1.52;;
52244;SDS011;55759;51.586;-1.758;2023-04-25T14:50:15;4.70;;;1.63;;
52244;SDS011;55759;51.586;-1.758;2023-04-25T14:52:41;4.22;;;1.90;;
52244;SDS011;55759;51.586;-1.758;2023-04-25T14:55:08;5.68;;;1.80;;
52244;SDS011;55759;51.586;-1.758;2023-04-25T14:57:34;5.00;;;1.85;;
52244;SDS011;55759;51.586;-1.758;2023-04-25T15:00:00;3.03;;;1.80;;
52244;SDS011;55759;51.586;-1.758;2023-04-25T15:02:27;5.18;;;1.90;;
52244;SDS011;55759;51.586;-1.758;2023-04-25T15:04:53;6.40;;;1.70;;
52244;SDS011;55759;51.586;-1.758;2023-04-25T15:07:20;4.97;;;2.35;;
52244;SDS011;55759;51.586;-1.758;2023-04-25T15:09:47;4.35;;;2.08;;
52244;SDS011;55759;51.586;-1.758;2023-04-25T15:12:13;5.25;;;2.20;;
52244;SDS011;55759;51.586;-1.758;2023-04-25T15:14:39;4.55;;;2.00;;
52244;SDS011;55759;51.586;-1.758;2023-04-25T15:17:05;4.97;;;2.03;;
52244;SDS011;55759;51.586;-1.758;2023-04-25T15:19:31;4.43;;;1.90;;
52244;SDS011;55759;51.586;-1.758;2023-04-25T15:21:57;4.18;;;1.88;;
52244;SDS011;55759;51.586;-1.758;2023-04-25T15:24:26;4.05;;;2.10;;